sensor_id;sensor_type;location;lat;lon;timestamp;P1;durP1;ratioP1;P2;durP2;ratioP2
10565;SDS011;5331;48.148;16.326;2023-07-09T00:01:40;5.80;;;5.18;;
10565;SDS011;5331;48.148;16.326;2023-07-09T00:04:08;5.55;;;5.15;;
10565;SDS011;5331;48.148;16.326;2023-07-09T00:06:37;5.78;;;5.20;;
10565;SDS011;5331;48.148;16.326;2023-07-09T00:09:05;5.60;;;5.10;;
10565;SDS011;5331;48.148;16.326;2023-07-09T00:11:32;5.28;;;4.85;;
10565;SDS011;5331;48.148;16.326;2023-07-09T00:13:59;5.95;;;5.45;;
10565;SDS011;5331;48.148;16.326;2023-07-09T00:16:26;5.28;;;4.78;;
10565;SDS011;5331;48.148;16.326;2023-07-09T00:18:53;5.50;;;5.10;;
10565;SDS011;5331;48.148;16.326;2023-07-09T00:21:21;5.25;;;4.85;;
10565;SDS011;5331;48.148;16.326;2023-07-09T00:23:49;5.35;;;4.85;;
10565;SDS011;5331;48.148;16.326;2023-07-09T00:26:16;5.43;;;5.00;;
10565;SDS011;5331;48.148;16.326;2023-07-09T00:28:45;5.20;;;4.80;;
10565;SDS011;5331;48.148;16.326;2023-07-09T00:31:13;5.20;;;4.80;;
10565;SDS011;5331;48.148;16.326;2023-07-09T00:33:41;5.70;;;5.20;;
10565;SDS011;5331;48.148;16.326;2023-07-09T00:36:10;5.95;;;5.43;;
10565;SDS011;5331;48.148;16.326;2023-07-09T00:38:40;5.85;;;5.30;;
10565;SDS011;5331;48.148;16.326;2023-07-09T00:41:15;7.70;;;5.30;;
10565;SDS011;5331;48.148;16.326;2023-07-09T00:43:44;5.68;;;5.18;;
10565;SDS011;5331;48.148;16.326;2023-07-09T00:49:16;6.95;;;5.45;;
10565;SDS011;5331;48.148;16.326;2023-07-09T00:51:52;5.50;;;5.00;;
10565;SDS011;5331;48.148;16.326;2023-07-09T00:54:23;5.93;;;5.28;;
10565;SDS011;5331;48.148;16.326;2023-07-09T00:56:57;5.32;;;4.93;;
10565;SDS011;5331;48.148;16.326;2023-07-09T00:59:28;6.50;;;5.55;;
10565;SDS011;5331;48.148;16.326;2023-07-09T01:01:56;5.50;;;5.00;;
10565;SDS011;5331;48.148;16.326;2023-07-09T01:04:25;5.90;;;5.30;;
10565;SDS011;5331;48.148;16.326;2023-07-09T01:06:54;5.20;;;4.80;;
10565;SDS011;5331;48.148;16.326;2023-07-09T01:09:22;5.50;;;5.00;;
10565;SDS011;5331;48.148;16.326;2023-07-09T01:11:50;5.90;;;5.20;;
10565;SDS011;5331;48.148;16.326;2023-07-09T01:14:22;6.00;;;5.40;;
10565;SDS011;5331;48.148;16.326;2023-07-09T01:16:52;6.00;;;5.40;;
10565;SDS011;5331;48.148;16.326;2023-07-09T01:19:23;5.40;;;4.97;;
10565;SDS011;5331;48.148;16.326;2023-07-09T01:21:53;5.90;;;5.30;;
10565;SDS011;5331;48.148;16.326;2023-07-09T01:27:15;5.85;;;4.90;;
10565;SDS011;5331;48.148;16.326;2023-07-09T01:29:43;5.88;;;5.30;;
10565;SDS011;5331;48.148;16.326;2023-07-09T01:32:14;6.00;;;5.40;;
10565;SDS011;5331;48.148;16.326;2023-07-09T01:34:42;5.97;;;5.25;;
10565;SDS011;5331;48.148;16.326;2023-07-09T01:37:10;5.97;;;5.38;;
10565;SDS011;5331;48.148;16.326;2023-07-09T01:39:37;6.32;;;5.72;;
10565;SDS011;5331;48.148;16.326;2023-07-09T01:42:06;5.75;;;5.22;;
10565;SDS011;5331;48.148;16.326;2023-07-09T01:44:34;5.57;;;5.03;;
10565;SDS011;5331;48.148;16.326;2023-07-09T01:47:02;9.70;;;5.68;;
10565;SDS011;5331;48.148;16.326;2023-07-09T01:49:29;5.95;;;5.45;;
10565;SDS011;5331;48.148;16.326;2023-07-09T01:51:57;5.22;;;4.80;;
10565;SDS011;5331;48.148;16.326;2023-07-09T01:54:28;6.72;;;5.40;;
10565;SDS011;5331;48.148;16.326;2023-07-09T01:59:38;5.82;;;5.32;;
10565;SDS011;5331;48.148;16.326;2023-07-09T02:02:06;5.40;;;4.95;;
10565;SDS011;5331;48.148;16.326;2023-07-09T02:04:33;6.38;;;5.35;;
10565;SDS011;5331;48.148;16.326;2023-07-09T02:07:00;5.30;;;4.82;;
10565;SDS011;5331;48.148;16.326;2023-07-09T02:09:28;6.47;;;5.22;;
10565;SDS011;5331;48.148;16.326;2023-07-09T02:11:55;6.22;;;5.20;;
10565;SDS011;5331;48.148;16.326;2023-07-09T02:14:22;6.40;;;5.72;;
10565;SDS011;5331;48.148;16.326;2023-07-09T02:16:50;6.05;;;5.55;;
10565;SDS011;5331;48.148;16.326;2023-07-09T02:19:17;6.97;;;5.07;;
10565;SDS011;5331;48.148;16.326;2023-07-09T02:21:44;5.97;;;5.25;;
10565;SDS011;5331;48.148;16.326;2023-07-09T02:24:11;7.47;;;5.38;;
10565;SDS011;5331;48.148;16.326;2023-07-09T02:26:39;5.38;;;4.93;;
10565;SDS011;5331;48.148;16.326;2023-07-09T02:29:06;5.70;;;5.20;;
10565;SDS011;5331;48.148;16.326;2023-07-09T02:31:33;6.93;;;5.18;;
10565;SDS011;5331;48.148;16.326;2023-07-09T02:34:00;5.50;;;5.00;;
10565;SDS011;5331;48.148;16.326;2023-07-09T02:36:28;5.45;;;4.95;;
10565;SDS011;5331;48.148;16.326;2023-07-09T02:38:55;5.80;;;4.93;;
10565;SDS011;5331;48.148;16.326;2023-07-09T02:41:22;5.45;;;5.05;;
10565;SDS011;5331;48.148;16.326;2023-07-09T02:43:50;5.78;;;5.38;;
10565;SDS011;5331;48.148;16.326;2023-07-09T02:46:17;6.65;;;5.10;;
10565;SDS011;5331;48.148;16.326;2023-07-09T02:48:44;5.75;;;5.20;;
10565;SDS011;5331;48.148;16.326;2023-07-09T02:51:11;5.50;;;4.95;;
10565;SDS011;5331;48.148;16.326;2023-07-09T02:53:37;5.50;;;5.10;;
10565;SDS011;5331;48.148;16.326;2023-07-09T02:56:04;5.93;;;5.00;;
10565;SDS011;5331;48.148;16.326;2023-07-09T02:58:31;5.63;;;5.13;;
10565;SDS011;5331;48.148;16.326;2023-07-09T03:00:59;6.10;;;5.50;;
10565;SDS011;5331;48.148;16.326;2023-07-09T03:03:28;5.65;;;5.25;;
10565;SDS011;5331;48.148;16.326;2023-07-09T03:05:55;5.05;;;4.65;;
10565;SDS011;5331;48.148;16.326;2023-07-09T03:08:22;5.18;;;4.78;;
10565;SDS011;5331;48.148;16.326;2023-07-09T03:10:49;5.68;;;5.20;;
10565;SDS011;5331;48.148;16.326;2023-07-09T03:13:16;5.38;;;4.88;;
10565;SDS011;5331;48.148;16.326;2023-07-09T03:15:43;5.68;;;5.18;;
10565;SDS011;5331;48.148;16.326;2023-07-09T03:18:11;5.40;;;4.90;;
10565;SDS011;5331;48.148;16.326;2023-07-09T03:20:38;5.95;;;5.35;;
10565;SDS011;5331;48.148;16.326;2023-07-09T03:23:05;5.97;;;5.47;;
10565;SDS011;5331;48.148;16.326;2023-07-09T03:25:32;5.18;;;4.60;;
10565;SDS011;5331;48.148;16.326;2023-07-09T03:27:59;5.47;;;5.07;;
10565;SDS011;5331;48.148;16.326;2023-07-09T03:30:26;5.47;;;5.07;;
10565;SDS011;5331;48.148;16.326;2023-07-09T03:32:52;5.78;;;5.28;;
10565;SDS011;5331;48.148;16.326;2023-07-09T03:35:21;5.18;;;4.68;;
10565;SDS011;5331;48.148;16.326;2023-07-09T03:37:47;5.95;;;5.35;;
10565;SDS011;5331;48.148;16.326;2023-07-09T03:40:19;5.53;;;5.00;;
10565;SDS011;5331;48.148;16.326;2023-07-09T03:42:47;6.10;;;5.60;;
10565;SDS011;5331;48.148;16.326;2023-07-09T03:45:14;5.82;;;5.32;;
10565;SDS011;5331;48.148;16.326;2023-07-09T03:47:41;5.70;;;5.20;;
10565;SDS011;5331;48.148;16.326;2023-07-09T03:50:09;5.70;;;5.20;;
10565;SDS011;5331;48.148;16.326;2023-07-09T03:52:38;5.70;;;5.15;;
10565;SDS011;5331;48.148;16.326;2023-07-09T03:55:05;5.97;;;4.90;;
10565;SDS011;5331;48.148;16.326;2023-07-09T03:57:33;5.15;;;4.75;;
10565;SDS011;5331;48.148;16.326;2023-07-09T04:00:00;5.78;;;5.18;;
10565;SDS011;5331;48.148;16.326;2023-07-09T04:02:29;5.82;;;5.32;;
10565;SDS011;5331;48.148;16.326;2023-07-09T04:04:57;5.63;;;5.10;;
10565;SDS011;5331;48.148;16.326;2023-07-09T04:07:24;5.75;;;5.25;;
10565;SDS011;5331;48.148;16.326;2023-07-09T04:09:52;5.07;;;4.68;;
10565;SDS011;5331;48.148;16.326;2023-07-09T04:12:19;5.03;;;4.63;;
10565;SDS011;5331;48.148;16.326;2023-07-09T04:14:46;5.18;;;4.72;;
10565;SDS011;5331;48.148;16.326;2023-07-09T04:17:12;5.47;;;4.97;;
10565;SDS011;5331;48.148;16.326;2023-07-09T04:19:39;5.47;;;5.07;;
10565;SDS011;5331;48.148;16.326;2023-07-09T04:22:06;5.55;;;5.15;;
10565;SDS011;5331;48.148;16.326;2023-07-09T04:24:34;5.82;;;5.32;;
10565;SDS011;5331;48.148;16.326;2023-07-09T04:27:03;5.18;;;4.78;;
10565;SDS011;5331;48.148;16.326;2023-07-09T04:29:31;5.72;;;5.22;;
10565;SDS011;5331;48.148;16.326;2023-07-09T04:32:00;5.60;;;5.00;;
10565;SDS011;5331;48.148;16.326;2023-07-09T04:34:27;5.60;;;5.10;;
10565;SDS011;5331;48.148;16.326;2023-07-09T04:36:54;5.65;;;5.22;;
10565;SDS011;5331;48.148;16.326;2023-07-09T04:39:21;5.53;;;4.88;;
10565;SDS011;5331;48.148;16.326;2023-07-09T04:41:48;5.22;;;4.82;;
10565;SDS011;5331;48.148;16.326;2023-07-09T04:44:16;5.18;;;4.70;;
10565;SDS011;5331;48.148;16.326;2023-07-09T04:46:43;6.32;;;5.50;;
10565;SDS011;5331;48.148;16.326;2023-07-09T04:49:10;6.00;;;4.95;;
10565;SDS011;5331;48.148;16.326;2023-07-09T04:51:37;6.03;;;5.22;;
10565;SDS011;5331;48.148;16.326;2023-07-09T04:54:04;5.90;;;5.50;;
10565;SDS011;5331;48.148;16.326;2023-07-09T04:56:31;5.47;;;4.97;;
10565;SDS011;5331;48.148;16.326;2023-07-09T04:58:58;6.13;;;5.63;;
10565;SDS011;5331;48.148;16.326;2023-07-09T05:01:26;5.85;;;5.25;;
10565;SDS011;5331;48.148;16.326;2023-07-09T05:03:53;6.18;;;5.57;;
10565;SDS011;5331;48.148;16.326;2023-07-09T05:06:21;6.13;;;5.30;;
10565;SDS011;5331;48.148;16.326;2023-07-09T05:08:48;5.90;;;5.30;;
10565;SDS011;5331;48.148;16.326;2023-07-09T05:11:14;6.30;;;5.80;;
10565;SDS011;5331;48.148;16.326;2023-07-09T05:13:41;6.22;;;5.72;;
10565;SDS011;5331;48.148;16.326;2023-07-09T05:16:08;5.90;;;5.40;;
10565;SDS011;5331;48.148;16.326;2023-07-09T05:18:37;6.28;;;5.68;;
10565;SDS011;5331;48.148;16.326;2023-07-09T05:21:03;5.93;;;5.35;;
10565;SDS011;5331;48.148;16.326;2023-07-09T05:23:30;5.38;;;4.97;;
10565;SDS011;5331;48.148;16.326;2023-07-09T05:25:57;6.30;;;5.15;;
10565;SDS011;5331;48.148;16.326;2023-07-09T05:28:25;7.78;;;5.68;;
10565;SDS011;5331;48.148;16.326;2023-07-09T05:30:52;5.10;;;4.60;;
10565;SDS011;5331;48.148;16.326;2023-07-09T05:33:19;5.00;;;4.55;;
10565;SDS011;5331;48.148;16.326;2023-07-09T05:35:47;5.60;;;5.10;;
10565;SDS011;5331;48.148;16.326;2023-07-09T05:38:14;5.65;;;5.15;;
10565;SDS011;5331;48.148;16.326;2023-07-09T05:40:41;5.63;;;5.13;;
10565;SDS011;5331;48.148;16.326;2023-07-09T05:43:09;5.65;;;5.15;;
10565;SDS011;5331;48.148;16.326;2023-07-09T05:45:38;5.85;;;5.25;;
10565;SDS011;5331;48.148;16.326;2023-07-09T05:48:05;5.78;;;5.18;;
10565;SDS011;5331;48.148;16.326;2023-07-09T05:50:32;6.93;;;5.30;;
10565;SDS011;5331;48.148;16.326;2023-07-09T05:53:02;6.35;;;5.72;;
10565;SDS011;5331;48.148;16.326;2023-07-09T05:55:29;5.80;;;5.30;;
10565;SDS011;5331;48.148;16.326;2023-07-09T05:57:57;6.35;;;5.47;;
10565;SDS011;5331;48.148;16.326;2023-07-09T06:00:24;5.72;;;5.10;;
10565;SDS011;5331;48.148;16.326;2023-07-09T06:02:51;6.13;;;5.53;;
10565;SDS011;5331;48.148;16.326;2023-07-09T06:05:18;5.85;;;5.35;;
10565;SDS011;5331;48.148;16.326;2023-07-09T06:07:45;6.68;;;5.50;;
10565;SDS011;5331;48.148;16.326;2023-07-09T06:10:14;5.68;;;5.18;;
10565;SDS011;5331;48.148;16.326;2023-07-09T06:12:41;5.75;;;5.20;;
10565;SDS011;5331;48.148;16.326;2023-07-09T06:15:09;5.75;;;5.30;;
10565;SDS011;5331;48.148;16.326;2023-07-09T06:17:37;6.45;;;5.35;;
10565;SDS011;5331;48.148;16.326;2023-07-09T06:20:05;5.88;;;5.32;;
10565;SDS011;5331;48.148;16.326;2023-07-09T06:22:32;6.50;;;5.70;;
10565;SDS011;5331;48.148;16.326;2023-07-09T06:24:59;5.88;;;5.38;;
10565;SDS011;5331;48.148;16.326;2023-07-09T06:27:27;5.80;;;5.30;;
10565;SDS011;5331;48.148;16.326;2023-07-09T06:29:54;5.60;;;5.10;;
10565;SDS011;5331;48.148;16.326;2023-07-09T06:32:21;5.47;;;5.05;;
10565;SDS011;5331;48.148;16.326;2023-07-09T06:34:48;5.80;;;5.40;;
10565;SDS011;5331;48.148;16.326;2023-07-09T06:37:15;5.60;;;5.13;;
10565;SDS011;5331;48.148;16.326;2023-07-09T06:39:42;6.43;;;5.60;;
10565;SDS011;5331;48.148;16.326;2023-07-09T06:42:09;6.65;;;5.50;;
10565;SDS011;5331;48.148;16.326;2023-07-09T06:44:37;6.05;;;5.38;;
10565;SDS011;5331;48.148;16.326;2023-07-09T06:47:04;5.97;;;5.47;;
10565;SDS011;5331;48.148;16.326;2023-07-09T06:49:31;7.53;;;5.70;;
10565;SDS011;5331;48.148;16.326;2023-07-09T06:51:58;5.57;;;5.10;;
10565;SDS011;5331;48.148;16.326;2023-07-09T06:54:25;6.35;;;5.82;;
10565;SDS011;5331;48.148;16.326;2023-07-09T06:56:52;5.93;;;5.43;;
10565;SDS011;5331;48.148;16.326;2023-07-09T06:59:19;6.18;;;5.57;;
10565;SDS011;5331;48.148;16.326;2023-07-09T07:01:47;6.63;;;6.03;;
10565;SDS011;5331;48.148;16.326;2023-07-09T07:04:14;6.15;;;5.65;;
10565;SDS011;5331;48.148;16.326;2023-07-09T07:06:41;6.45;;;5.60;;
10565;SDS011;5331;48.148;16.326;2023-07-09T07:09:08;6.05;;;5.55;;
10565;SDS011;5331;48.148;16.326;2023-07-09T07:11:35;6.30;;;5.80;;
10565;SDS011;5331;48.148;16.326;2023-07-09T07:14:01;5.72;;;5.22;;
10565;SDS011;5331;48.148;16.326;2023-07-09T07:16:28;6.07;;;5.53;;
10565;SDS011;5331;48.148;16.326;2023-07-09T07:18:56;6.47;;;5.45;;
10565;SDS011;5331;48.148;16.326;2023-07-09T07:21:23;5.47;;;5.07;;
10565;SDS011;5331;48.148;16.326;2023-07-09T07:23:50;7.50;;;5.72;;
10565;SDS011;5331;48.148;16.326;2023-07-09T07:26:17;5.55;;;5.15;;
10565;SDS011;5331;48.148;16.326;2023-07-09T07:28:44;6.00;;;5.50;;
10565;SDS011;5331;48.148;16.326;2023-07-09T07:31:11;6.93;;;5.97;;
10565;SDS011;5331;48.148;16.326;2023-07-09T07:33:38;5.68;;;5.18;;
10565;SDS011;5331;48.148;16.326;2023-07-09T07:36:08;6.10;;;5.50;;
10565;SDS011;5331;48.148;16.326;2023-07-09T07:38:35;6.25;;;5.75;;
10565;SDS011;5331;48.148;16.326;2023-07-09T07:41:02;5.55;;;5.05;;
10565;SDS011;5331;48.148;16.326;2023-07-09T07:43:29;6.30;;;5.70;;
10565;SDS011;5331;48.148;16.326;2023-07-09T07:45:56;5.82;;;5.25;;
10565;SDS011;5331;48.148;16.326;2023-07-09T07:48:23;6.07;;;5.57;;
10565;SDS011;5331;48.148;16.326;2023-07-09T07:50:50;6.65;;;5.78;;
10565;SDS011;5331;48.148;16.326;2023-07-09T07:53:18;5.82;;;5.43;;
10565;SDS011;5331;48.148;16.326;2023-07-09T07:55:45;6.00;;;5.50;;
10565;SDS011;5331;48.148;16.326;2023-07-09T07:58:12;6.45;;;5.85;;
10565;SDS011;5331;48.148;16.326;2023-07-09T08:00:40;5.70;;;5.30;;
10565;SDS011;5331;48.148;16.326;2023-07-09T08:03:07;5.60;;;5.10;;
10565;SDS011;5331;48.148;16.326;2023-07-09T08:05:33;7.88;;;5.40;;
10565;SDS011;5331;48.148;16.326;2023-07-09T08:08:00;5.70;;;5.15;;
10565;SDS011;5331;48.148;16.326;2023-07-09T08:10:29;6.38;;;5.72;;
10565;SDS011;5331;48.148;16.326;2023-07-09T08:12:56;6.07;;;5.57;;
10565;SDS011;5331;48.148;16.326;2023-07-09T08:15:23;6.60;;;5.88;;
10565;SDS011;5331;48.148;16.326;2023-07-09T08:17:50;6.10;;;5.50;;
10565;SDS011;5331;48.148;16.326;2023-07-09T08:20:17;6.40;;;5.80;;
10565;SDS011;5331;48.148;16.326;2023-07-09T08:22:44;6.43;;;5.93;;
10565;SDS011;5331;48.148;16.326;2023-07-09T08:25:11;7.20;;;6.50;;
10565;SDS011;5331;48.148;16.326;2023-07-09T08:27:40;7.00;;;6.30;;
10565;SDS011;5331;48.148;16.326;2023-07-09T08:30:07;6.75;;;5.90;;
10565;SDS011;5331;48.148;16.326;2023-07-09T08:32:34;7.10;;;5.90;;
10565;SDS011;5331;48.148;16.326;2023-07-09T08:35:01;7.05;;;6.35;;
10565;SDS011;5331;48.148;16.326;2023-07-09T08:37:28;6.85;;;6.20;;
10565;SDS011;5331;48.148;16.326;2023-07-09T08:39:55;6.53;;;5.82;;
10565;SDS011;5331;48.148;16.326;2023-07-09T08:42:24;6.78;;;6.18;;
10565;SDS011;5331;48.148;16.326;2023-07-09T08:45:03;7.65;;;6.38;;
10565;SDS011;5331;48.148;16.326;2023-07-09T08:47:43;6.10;;;5.57;;
10565;SDS011;5331;48.148;16.326;2023-07-09T08:50:17;6.90;;;6.30;;
10565;SDS011;5331;48.148;16.326;2023-07-09T08:52:48;6.30;;;5.70;;
10565;SDS011;5331;48.148;16.326;2023-07-09T08:55:17;6.20;;;5.70;;
10565;SDS011;5331;48.148;16.326;2023-07-09T08:57:47;6.55;;;5.95;;
10565;SDS011;5331;48.148;16.326;2023-07-09T09:00:18;8.02;;;6.80;;
10565;SDS011;5331;48.148;16.326;2023-07-09T09:02:49;7.05;;;6.45;;
10565;SDS011;5331;48.148;16.326;2023-07-09T09:05:21;7.53;;;6.93;;
10565;SDS011;5331;48.148;16.326;2023-07-09T09:07:51;7.25;;;6.57;;
10565;SDS011;5331;48.148;16.326;2023-07-09T09:10:23;6.80;;;6.20;;
10565;SDS011;5331;48.148;16.326;2023-07-09T09:12:59;6.63;;;5.97;;
10565;SDS011;5331;48.148;16.326;2023-07-09T09:15:33;6.72;;;5.97;;
10565;SDS011;5331;48.148;16.326;2023-07-09T09:18:10;5.93;;;5.45;;
10565;SDS011;5331;48.148;16.326;2023-07-09T09:20:45;6.95;;;6.35;;
10565;SDS011;5331;48.148;16.326;2023-07-09T09:23:17;6.90;;;6.30;;
10565;SDS011;5331;48.148;16.326;2023-07-09T09:25:46;6.90;;;6.22;;
10565;SDS011;5331;48.148;16.326;2023-07-09T09:28:16;6.60;;;5.93;;
10565;SDS011;5331;48.148;16.326;2023-07-09T09:30:44;7.78;;;6.38;;
10565;SDS011;5331;48.148;16.326;2023-07-09T09:33:11;6.80;;;6.20;;
10565;SDS011;5331;48.148;16.326;2023-07-09T09:35:39;6.50;;;5.90;;
10565;SDS011;5331;48.148;16.326;2023-07-09T09:38:10;6.70;;;6.10;;
10565;SDS011;5331;48.148;16.326;2023-07-09T09:40:38;7.00;;;6.30;;
10565;SDS011;5331;48.148;16.326;2023-07-09T09:43:09;7.10;;;6.30;;
10565;SDS011;5331;48.148;16.326;2023-07-09T09:45:40;6.20;;;5.70;;
10565;SDS011;5331;48.148;16.326;2023-07-09T09:48:16;6.75;;;6.07;;
10565;SDS011;5331;48.148;16.326;2023-07-09T09:50:44;6.55;;;6.00;;
10565;SDS011;5331;48.148;16.326;2023-07-09T09:53:16;6.70;;;6.20;;
10565;SDS011;5331;48.148;16.326;2023-07-09T09:55:45;6.20;;;5.70;;
10565;SDS011;5331;48.148;16.326;2023-07-09T09:58:14;6.35;;;5.75;;
10565;SDS011;5331;48.148;16.326;2023-07-09T10:00:46;5.97;;;5.47;;
10565;SDS011;5331;48.148;16.326;2023-07-09T10:03:16;6.30;;;5.75;;
10565;SDS011;5331;48.148;16.326;2023-07-09T10:05:45;6.22;;;5.72;;
10565;SDS011;5331;48.148;16.326;2023-07-09T10:08:20;6.40;;;5.72;;
10565;SDS011;5331;48.148;16.326;2023-07-09T10:10:53;6.28;;;5.70;;
10565;SDS011;5331;48.148;16.326;2023-07-09T10:13:32;5.90;;;5.40;;
10565;SDS011;5331;48.148;16.326;2023-07-09T10:16:06;5.63;;;5.22;;
10565;SDS011;5331;48.148;16.326;2023-07-09T10:18:41;5.80;;;5.40;;
10565;SDS011;5331;48.148;16.326;2023-07-09T10:21:18;5.80;;;5.30;;
10565;SDS011;5331;48.148;16.326;2023-07-09T10:23:55;6.10;;;5.60;;
10565;SDS011;5331;48.148;16.326;2023-07-09T10:26:34;6.00;;;5.50;;
10565;SDS011;5331;48.148;16.326;2023-07-09T10:32:01;5.68;;;5.18;;
10565;SDS011;5331;48.148;16.326;2023-07-09T10:34:38;6.35;;;5.55;;
10565;SDS011;5331;48.148;16.326;2023-07-09T10:37:18;5.90;;;5.40;;
10565;SDS011;5331;48.148;16.326;2023-07-09T10:39:59;5.82;;;5.32;;
10565;SDS011;5331;48.148;16.326;2023-07-09T10:42:32;6.45;;;5.85;;
10565;SDS011;5331;48.148;16.326;2023-07-09T10:45:07;6.28;;;5.68;;
10565;SDS011;5331;48.148;16.326;2023-07-09T10:47:38;5.35;;;4.95;;
10565;SDS011;5331;48.148;16.326;2023-07-09T10:50:12;5.80;;;5.40;;
10565;SDS011;5331;48.148;16.326;2023-07-09T10:52:46;6.38;;;5.88;;
10565;SDS011;5331;48.148;16.326;2023-07-09T10:55:17;5.85;;;5.35;;
10565;SDS011;5331;48.148;16.326;2023-07-09T10:57:52;5.85;;;5.32;;
10565;SDS011;5331;48.148;16.326;2023-07-09T11:00:23;5.95;;;5.38;;
10565;SDS011;5331;48.148;16.326;2023-07-09T11:03:00;5.93;;;5.32;;
10565;SDS011;5331;48.148;16.326;2023-07-09T11:05:32;5.70;;;5.30;;
10565;SDS011;5331;48.148;16.326;2023-07-09T11:08:00;6.10;;;5.50;;
10565;SDS011;5331;48.148;16.326;2023-07-09T11:10:31;5.68;;;5.18;;
10565;SDS011;5331;48.148;16.326;2023-07-09T11:13:02;6.00;;;5.40;;
10565;SDS011;5331;48.148;16.326;2023-07-09T11:15:33;5.10;;;4.70;;
10565;SDS011;5331;48.148;16.326;2023-07-09T11:18:04;5.30;;;4.90;;
10565;SDS011;5331;48.148;16.326;2023-07-09T11:20:35;5.40;;;4.95;;
10565;SDS011;5331;48.148;16.326;2023-07-09T11:23:03;5.50;;;5.00;;
10565;SDS011;5331;48.148;16.326;2023-07-09T11:25:40;5.25;;;4.85;;
10565;SDS011;5331;48.148;16.326;2023-07-09T11:28:08;5.60;;;5.20;;
10565;SDS011;5331;48.148;16.326;2023-07-09T11:30:45;5.60;;;5.10;;
10565;SDS011;5331;48.148;16.326;2023-07-09T11:33:17;5.55;;;5.00;;
10565;SDS011;5331;48.148;16.326;2023-07-09T11:35:47;4.97;;;4.57;;
10565;SDS011;5331;48.148;16.326;2023-07-09T11:38:17;5.00;;;4.53;;
10565;SDS011;5331;48.148;16.326;2023-07-09T11:40:46;4.78;;;4.47;;
10565;SDS011;5331;48.148;16.326;2023-07-09T11:43:25;4.93;;;4.53;;
10565;SDS011;5331;48.148;16.326;2023-07-09T11:45:54;4.70;;;4.40;;
10565;SDS011;5331;48.148;16.326;2023-07-09T11:48:26;5.40;;;4.90;;
10565;SDS011;5331;48.148;16.326;2023-07-09T11:50:55;5.03;;;4.63;;
10565;SDS011;5331;48.148;16.326;2023-07-09T11:53:28;5.05;;;4.65;;
10565;SDS011;5331;48.148;16.326;2023-07-09T11:56:01;4.97;;;4.68;;
10565;SDS011;5331;48.148;16.326;2023-07-09T11:58:29;5.28;;;4.80;;
10565;SDS011;5331;48.148;16.326;2023-07-09T12:00:56;5.15;;;4.75;;
10565;SDS011;5331;48.148;16.326;2023-07-09T12:03:25;5.65;;;5.15;;
10565;SDS011;5331;48.148;16.326;2023-07-09T12:05:56;5.88;;;5.18;;
10565;SDS011;5331;48.148;16.326;2023-07-09T12:08:30;5.60;;;5.10;;
10565;SDS011;5331;48.148;16.326;2023-07-09T12:11:02;5.18;;;4.78;;
10565;SDS011;5331;48.148;16.326;2023-07-09T12:13:28;5.07;;;4.68;;
10565;SDS011;5331;48.148;16.326;2023-07-09T12:16:02;4.75;;;4.45;;
10565;SDS011;5331;48.148;16.326;2023-07-09T12:18:29;4.50;;;4.20;;
10565;SDS011;5331;48.148;16.326;2023-07-09T12:20:57;4.80;;;4.50;;
10565;SDS011;5331;48.148;16.326;2023-07-09T12:23:27;4.82;;;4.45;;
10565;SDS011;5331;48.148;16.326;2023-07-09T12:25:55;4.90;;;4.55;;
10565;SDS011;5331;48.148;16.326;2023-07-09T12:28:27;5.00;;;4.60;;
10565;SDS011;5331;48.148;16.326;2023-07-09T12:30:55;5.40;;;4.97;;
10565;SDS011;5331;48.148;16.326;2023-07-09T12:33:23;4.60;;;4.30;;
10565;SDS011;5331;48.148;16.326;2023-07-09T12:35:53;4.85;;;4.50;;
10565;SDS011;5331;48.148;16.326;2023-07-09T12:38:25;4.88;;;4.57;;
10565;SDS011;5331;48.148;16.326;2023-07-09T12:40:54;5.00;;;4.50;;
10565;SDS011;5331;48.148;16.326;2023-07-09T12:43:23;5.05;;;4.63;;
10565;SDS011;5331;48.148;16.326;2023-07-09T12:45:52;5.38;;;4.88;;
10565;SDS011;5331;48.148;16.326;2023-07-09T12:48:20;5.32;;;4.85;;
10565;SDS011;5331;48.148;16.326;2023-07-09T12:50:50;5.18;;;4.78;;
10565;SDS011;5331;48.148;16.326;2023-07-09T12:53:18;5.53;;;5.05;;
10565;SDS011;5331;48.148;16.326;2023-07-09T12:55:48;6.72;;;5.00;;
10565;SDS011;5331;48.148;16.326;2023-07-09T12:58:18;5.45;;;4.95;;
10565;SDS011;5331;48.148;16.326;2023-07-09T13:00:47;4.97;;;4.57;;
10565;SDS011;5331;48.148;16.326;2023-07-09T13:03:16;5.10;;;4.55;;
10565;SDS011;5331;48.148;16.326;2023-07-09T13:05:53;5.18;;;4.68;;
10565;SDS011;5331;48.148;16.326;2023-07-09T13:08:22;4.63;;;4.32;;
10565;SDS011;5331;48.148;16.326;2023-07-09T13:10:51;5.30;;;4.80;;
10565;SDS011;5331;48.148;16.326;2023-07-09T13:13:19;4.60;;;4.20;;
10565;SDS011;5331;48.148;16.326;2023-07-09T13:15:48;5.07;;;4.28;;
10565;SDS011;5331;48.148;16.326;2023-07-09T13:18:21;4.72;;;4.43;;
10565;SDS011;5331;48.148;16.326;2023-07-09T13:20:49;4.80;;;4.45;;
10565;SDS011;5331;48.148;16.326;2023-07-09T13:23:18;4.78;;;4.40;;
10565;SDS011;5331;48.148;16.326;2023-07-09T13:25:46;4.40;;;4.10;;
10565;SDS011;5331;48.148;16.326;2023-07-09T13:28:19;4.60;;;4.30;;
10565;SDS011;5331;48.148;16.326;2023-07-09T13:30:47;5.10;;;4.60;;
10565;SDS011;5331;48.148;16.326;2023-07-09T13:33:16;4.75;;;4.35;;
10565;SDS011;5331;48.148;16.326;2023-07-09T13:35:44;4.57;;;4.20;;
10565;SDS011;5331;48.148;16.326;2023-07-09T13:38:12;5.07;;;4.63;;
10565;SDS011;5331;48.148;16.326;2023-07-09T13:40:40;4.93;;;4.47;;
10565;SDS011;5331;48.148;16.326;2023-07-09T13:43:10;4.57;;;4.28;;
10565;SDS011;5331;48.148;16.326;2023-07-09T13:45:40;5.00;;;4.60;;
10565;SDS011;5331;48.148;16.326;2023-07-09T13:48:10;4.85;;;4.55;;
10565;SDS011;5331;48.148;16.326;2023-07-09T13:50:41;5.07;;;4.50;;
10565;SDS011;5331;48.148;16.326;2023-07-09T13:53:10;5.10;;;4.70;;
10565;SDS011;5331;48.148;16.326;2023-07-09T13:55:43;4.65;;;4.28;;
10565;SDS011;5331;48.148;16.326;2023-07-09T13:58:10;4.50;;;4.10;;
10565;SDS011;5331;48.148;16.326;2023-07-09T14:00:37;4.60;;;4.30;;
10565;SDS011;5331;48.148;16.326;2023-07-09T14:03:08;5.72;;;4.95;;
10565;SDS011;5331;48.148;16.326;2023-07-09T14:05:40;5.07;;;4.78;;
10565;SDS011;5331;48.148;16.326;2023-07-09T14:08:07;4.80;;;4.50;;
10565;SDS011;5331;48.148;16.326;2023-07-09T14:10:35;4.70;;;4.30;;
10565;SDS011;5331;48.148;16.326;2023-07-09T14:13:02;4.93;;;4.47;;
10565;SDS011;5331;48.148;16.326;2023-07-09T14:15:29;5.00;;;4.60;;
10565;SDS011;5331;48.148;16.326;2023-07-09T14:17:57;4.85;;;4.45;;
10565;SDS011;5331;48.148;16.326;2023-07-09T14:20:24;4.55;;;4.25;;
10565;SDS011;5331;48.148;16.326;2023-07-09T14:22:52;4.90;;;4.50;;
10565;SDS011;5331;48.148;16.326;2023-07-09T14:25:19;5.00;;;4.60;;
10565;SDS011;5331;48.148;16.326;2023-07-09T14:27:48;4.93;;;4.35;;
10565;SDS011;5331;48.148;16.326;2023-07-09T14:30:15;5.20;;;4.70;;
10565;SDS011;5331;48.148;16.326;2023-07-09T14:32:43;4.88;;;4.57;;
10565;SDS011;5331;48.148;16.326;2023-07-09T14:35:14;5.13;;;4.55;;
10565;SDS011;5331;48.148;16.326;2023-07-09T14:37:43;5.20;;;4.90;;
10565;SDS011;5331;48.148;16.326;2023-07-09T14:40:12;5.18;;;4.80;;
10565;SDS011;5331;48.148;16.326;2023-07-09T14:42:41;4.95;;;4.55;;
10565;SDS011;5331;48.148;16.326;2023-07-09T14:45:16;5.15;;;4.75;;
10565;SDS011;5331;48.148;16.326;2023-07-09T14:47:45;4.90;;;4.60;;
10565;SDS011;5331;48.148;16.326;2023-07-09T14:50:14;5.40;;;5.00;;
10565;SDS011;5331;48.148;16.326;2023-07-09T14:52:43;5.13;;;4.72;;
10565;SDS011;5331;48.148;16.326;2023-07-09T14:55:14;5.20;;;4.80;;
10565;SDS011;5331;48.148;16.326;2023-07-09T14:57:42;5.25;;;4.78;;
10565;SDS011;5331;48.148;16.326;2023-07-09T15:00:13;5.25;;;4.85;;
10565;SDS011;5331;48.148;16.326;2023-07-09T15:02:41;5.82;;;5.18;;
10565;SDS011;5331;48.148;16.326;2023-07-09T15:05:13;5.30;;;4.90;;
10565;SDS011;5331;48.148;16.326;2023-07-09T15:07:43;5.47;;;5.05;;
10565;SDS011;5331;48.148;16.326;2023-07-09T15:10:14;4.90;;;4.50;;